Bookmark and Share
Track history (hours):
 

Cmb Ariane

Last reported at 2014-Apr-16 13:33 UTC. Time now 2014-Apr-16 13:46 UTC.
Position N 37°50' E 024°33'.

Length 180 m; draft 9.8 m.

Type: Cargo ship. MMSI: 477229600.

NotesDate/timePositionNaut miles runAvg speedWind from/ knotsBaromVisibWave heightAir tempDewpointWater temp
2014-Apr-16 13:33N 37°50' E 024°33'308 6.7
2014-Apr-14 15:33N 41°27' E 029°17'2 2.5
2014-Apr-14 14:33N 41°29' E 029°16'1111.0
2014-Apr-14 13:34N 41°40' E 029°19'31211.4
2014-Apr-13 10:18N 46°35' E 031°37'7 9.3
2014-Apr-13 09:33N 46°36' E 031°47'8 8.3
2014-Apr-13 08:33N 46°41' E 031°56'8 8.2
2014-Apr-13 07:33N 46°49' E 031°55'8 8.0
2014-Apr-13 06:33N 46°56' E 032°01'0 0.5
2014-Apr-13 05:33N 46°56' E 032°01'0 0.0
2014-Apr-13 04:33N 46°56' E 032°01'0 0.0
2014-Apr-13 03:33N 46°56' E 032°01'0 0.0
2014-Apr-13 02:33N 46°56' E 032°01'0 0.0
2014-Apr-13 01:33N 46°56' E 032°01'0 0.0
2014-Apr-13 00:33N 46°56' E 032°01'0 0.0
2014-Apr-12 23:33N 46°56' E 032°01'0 0.0
2014-Apr-12 22:33N 46°56' E 032°01'0 0.0
2014-Apr-12 19:30N 46°56' E 032°01'0 0.0
2014-Apr-12 18:33N 46°56' E 032°01'0 0.0
2014-Apr-12 17:30N 46°56' E 032°01'0 0.0
2014-Apr-12 16:33N 46°56' E 032°01'0 0.0
2014-Apr-12 15:33N 46°56' E 032°01'0 0.0
2014-Apr-12 14:33N 46°56' E 032°01'0 0.0
2014-Apr-12 13:33N 46°56' E 032°01'0 0.0
2014-Apr-12 12:33N 46°56' E 032°01'0 0.0
2014-Apr-12 11:33N 46°56' E 032°01'0 0.0
2014-Apr-12 10:30N 46°56' E 032°01'0 0.0
2014-Apr-12 09:33N 46°56' E 032°01'0 0.0
2014-Apr-12 08:33N 46°56' E 032°01'0 0.0
2014-Apr-12 07:24N 46°56' E 032°01'0 0.0
2014-Apr-12 06:33N 46°56' E 032°01'0 0.0
2014-Apr-12 05:33N 46°56' E 032°01'0 0.0
2014-Apr-12 04:33N 46°56' E 032°01'0 0.0
2014-Apr-12 03:33N 46°56' E 032°01'0 0.0
2014-Apr-12 02:33N 46°56' E 032°01'0 0.0
2014-Apr-12 01:33N 46°56' E 032°01'0 0.0
2014-Apr-12 00:33N 46°56' E 032°01'0 0.0
2014-Apr-11 23:33N 46°56' E 032°01'0 0.0
2014-Apr-11 22:33N 46°56' E 032°01'0 0.0
2014-Apr-11 21:33N 46°56' E 032°01'0 0.0
2014-Apr-11 20:33N 46°56' E 032°01'0 0.0
2014-Apr-11 19:33N 46°56' E 032°01'0 0.0
2014-Apr-11 18:33N 46°56' E 032°01'0 0.0
2014-Apr-11 17:33N 46°56' E 032°01'0 0.0
2014-Apr-11 16:33N 46°56' E 032°01'0 0.0
2014-Apr-11 15:33N 46°56' E 032°01'0 0.0
2014-Apr-11 14:33N 46°56' E 032°01'0 0.0
2014-Apr-11 13:33N 46°56' E 032°01'0 0.0
2014-Apr-11 12:33N 46°56' E 032°01'0 0.0
2014-Apr-11 11:33N 46°56' E 032°01'0 0.0
2014-Apr-11 10:33N 46°56' E 032°01'0 0.0
2014-Apr-11 09:33N 46°56' E 032°01'0 0.0
2014-Apr-11 08:33N 46°56' E 032°01'0 0.0
2014-Apr-11 07:33N 46°56' E 032°01'0 0.0
2014-Apr-11 06:33N 46°56' E 032°01'0 0.0
2014-Apr-11 05:33N 46°56' E 032°01'0 0.0
2014-Apr-11 04:33N 46°56' E 032°01'0 0.0
2014-Apr-11 03:33N 46°56' E 032°01'0 0.0
2014-Apr-11 02:33N 46°56' E 032°01'0 0.0
2014-Apr-11 01:33N 46°56' E 032°01'0 0.0
2014-Apr-11 00:33N 46°56' E 032°01'0 0.0
2014-Apr-10 23:33N 46°56' E 032°01'0 0.0
2014-Apr-10 22:33N 46°56' E 032°01'0 0.0
2014-Apr-10 21:33N 46°56' E 032°01'0 0.0
2014-Apr-10 20:33N 46°56' E 032°01'0 0.0
2014-Apr-10 19:33N 46°56' E 032°01'0 0.0
2014-Apr-10 18:33N 46°56' E 032°01'0 0.0
2014-Apr-10 17:33N 46°56' E 032°01'0 0.0
2014-Apr-10 16:33N 46°56' E 032°01'0 0.0
2014-Apr-10 15:33N 46°56' E 032°01'0 0.0
2014-Apr-10 14:33N 46°56' E 032°01'0 0.0
2014-Apr-10 13:27N 46°56' E 032°01'1 0.6
2014-Apr-10 12:33N 46°57' E 032°01'0 0.2
2014-Apr-10 11:33N 46°57' E 032°00'0 0.0
2014-Apr-10 10:33N 46°57' E 032°00'0 0.0
2014-Apr-10 09:33N 46°57' E 032°00'0 0.0
2014-Apr-10 08:33N 46°57' E 032°00'0 0.0
2014-Apr-10 07:33N 46°57' E 032°00'0 0.0
2014-Apr-10 06:33N 46°57' E 032°00'0 0.0
2014-Apr-10 05:33N 46°57' E 032°00'0 0.0
2014-Apr-10 04:33N 46°57' E 032°00'0 0.0
2014-Apr-10 03:33N 46°57' E 032°00'0 0.0
2014-Apr-10 02:33N 46°57' E 032°00'0 0.0
2014-Apr-10 01:33N 46°57' E 032°00'0 0.0
2014-Apr-10 00:33N 46°57' E 032°00'0 0.0
2014-Apr-09 23:33N 46°57' E 032°00'0 0.0
2014-Apr-09 22:33N 46°57' E 032°00'0 0.0
2014-Apr-09 21:33N 46°57' E 032°00'0 0.0
2014-Apr-09 20:33N 46°57' E 032°00'0 0.0
2014-Apr-09 19:33N 46°57' E 032°00'0 0.0
2014-Apr-09 18:33N 46°57' E 032°00'0 0.0
2014-Apr-09 17:33N 46°57' E 032°00'0 0.0
2014-Apr-09 16:33N 46°57' E 032°00'0 0.0
2014-Apr-09 15:33N 46°57' E 032°00'0 0.0
2014-Apr-09 14:33N 46°57' E 032°00'0 0.0
2014-Apr-09 13:33N 46°57' E 032°00'0 0.0
2014-Apr-09 12:33N 46°57' E 032°00'0 0.0
2014-Apr-09 11:33N 46°57' E 032°00'0 0.0
2014-Apr-09 10:33N 46°57' E 032°00'0 0.0
2014-Apr-09 09:33N 46°57' E 032°00'0 0.0
2014-Apr-09 08:33N 46°57' E 032°00'0 0.0
2014-Apr-09 07:33N 46°57' E 032°00'0 0.0
2014-Apr-09 06:33N 46°57' E 032°00'0 0.0
2014-Apr-09 05:33N 46°57' E 032°00'0 0.0
2014-Apr-09 04:33N 46°57' E 032°00'0 0.0
2014-Apr-09 03:33N 46°57' E 032°00'0 0.0
2014-Apr-09 02:33N 46°57' E 032°00'0 0.0
2014-Apr-09 01:33N 46°57' E 032°00'0 0.0
2014-Apr-09 00:33N 46°57' E 032°00'0 0.0
2014-Apr-08 23:33N 46°57' E 032°00'0 0.0
2014-Apr-08 22:33N 46°57' E 032°00'0 0.0
2014-Apr-08 21:33N 46°57' E 032°00'0 0.0
2014-Apr-08 20:33N 46°57' E 032°00'0 0.0
2014-Apr-08 19:32N 46°57' E 032°00'0 0.0
2014-Apr-08 18:33N 46°57' E 032°00'0 0.0
2014-Apr-08 17:33N 46°57' E 032°00'0 0.0
2014-Apr-08 16:33N 46°57' E 032°00'0 0.0
2014-Apr-08 15:32N 46°57' E 032°00'0 0.0
2014-Apr-08 14:32N 46°57' E 032°00'0 0.0
2014-Apr-08 13:32N 46°57' E 032°00'0 0.0
2014-Apr-08 12:32N 46°57' E 032°00'0 0.0
2014-Apr-08 11:32N 46°57' E 032°00'0 0.0
2014-Apr-08 10:32N 46°57' E 032°00'0 0.0
2014-Apr-08 09:32N 46°57' E 032°00'0 0.0
2014-Apr-08 08:32N 46°57' E 032°00'0 0.0
2014-Apr-08 07:33N 46°57' E 032°00'0 0.0
2014-Apr-08 06:32N 46°57' E 032°00'0 0.0
2014-Apr-08 05:32N 46°57' E 032°00'0 0.0
2014-Apr-08 04:32N 46°57' E 032°00'0 0.0
2014-Apr-08 03:32N 46°57' E 032°00'0 0.0
2014-Apr-08 02:32N 46°57' E 032°00'0 0.0
2014-Apr-08 01:32N 46°57' E 032°00'0 0.0
2014-Apr-08 00:32N 46°57' E 032°00'0 0.0
2014-Apr-07 23:32N 46°57' E 032°00'0 0.0
2014-Apr-07 22:32N 46°57' E 032°00'0 0.0
2014-Apr-07 21:32N 46°57' E 032°00'0 0.0
2014-Apr-07 20:32N 46°57' E 032°00'0 0.0
2014-Apr-07 19:32N 46°57' E 032°00'0 0.0
2014-Apr-07 17:29N 46°57' E 032°00'0 0.0
2014-Apr-07 16:32N 46°57' E 032°00'0 0.0
2014-Apr-07 15:32N 46°57' E 032°00'0 0.0
2014-Apr-07 14:32N 46°57' E 032°00'0 0.0
2014-Apr-07 13:32N 46°57' E 032°00'0 0.0
2014-Apr-07 12:32N 46°57' E 032°00'0 0.0
2014-Apr-07 11:32N 46°57' E 032°00'0 0.0
2014-Apr-07 10:32N 46°57' E 032°00'0 0.0
2014-Apr-07 09:32N 46°57' E 032°00'0 0.0
2014-Apr-07 08:32N 46°57' E 032°00'0 0.0
2014-Apr-07 07:32N 46°57' E 032°00'0 0.0
2014-Apr-07 06:33N 46°57' E 032°00'3 3.4
2014-Apr-07 05:33N 46°53' E 032°00'1010.5
2014-Apr-07 04:33N 46°43' E 031°56'1110.9
2014-Apr-07 03:33N 46°36' E 031°45'1211.6
2014-Apr-07 02:33N 46°35' E 031°28'1312.8
2014-Apr-07 01:33N 46°35' E 031°09'10 9.5
2014-Apr-07 00:33N 46°32' E 030°56'  

Dump ship's entire track history

sailing weather and tide predictions

Cmb Ariane — VRIT7 — position and weather